Latest Weather Observations for Whyalla

IDS60801

Issued at 12:02 pm CDT Saturday 28 March 2015 (issued every 30 minutes, with the page automatically refreshed every 10 minutes)

About weather observations | Map of weather stations | Latest weather observations for SA | Other Formats
Station Details ID: 018120 Name: WHYALLA AERO Lat: -33.05 Lon: 137.52 Height: 6.5 m
Data from the previous 72 hours. | See also: Recent months at Whyalla
Date/Time
CDT
Temp
°C
App
Temp
°C
Dew
Point
Rel
Hum
%
Delta-T
°C
Wind Press
QNH
hPa
Press
MSL
hPa
Rain
since 9 am
mm
Dir
 
Spd
km/h
Gust
km/h
Spd
kts
Gust
kts
28/12:00pm 21.2 16.7 5.9 37 7.6 NNW 19 26 10 14 1023.9 1023.8 0.0
28/11:30am 20.5 16.8 6.4 40 7.1 NNE 15 22 8 12 1024.2 1024.2 0.0
28/11:00am 19.8 16.8 7.5 45 6.3 NNE 13 17 7 9 1024.3 1024.3 0.0
28/10:30am 18.6 15.5 7.1 47 5.8 NNE 13 17 7 9 1024.6 1024.6 0.0
28/10:00am 17.8 16.3 8.4 54 4.8 N 6 11 3 6 1024.6 1024.6 0.0
28/09:30am 16.0 14.8 9.7 66 3.3 NNW 6 7 3 4 1024.7 1024.7 0.0
28/09:00am 14.2 13.1 9.8 75 2.3 NNW 6 7 3 4 1024.5 1024.5 0.0
28/08:30am 12.0 10.0 8.8 81 1.6 NNW 9 11 5 6 1024.6 1024.6 0.0
28/08:00am 9.2 7.2 7.3 88 0.9 NW 7 9 4 5 1024.4 1024.4 0.0
28/07:30am 9.2 7.2 7.3 88 0.9 NW 7 9 4 5 1024.0 1024.0 0.0
28/07:00am 9.5 7.6 7.4 87 1.0 NW 7 9 4 5 1023.8 1023.7 0.0
28/06:30am 9.3 6.9 7.1 86 1.0 NNW 9 11 5 6 1023.9 1023.8 0.0
28/06:00am 9.4 7.4 7.2 86 1.0 NW 7 9 4 5 1023.8 1023.7 0.0
28/05:30am 9.6 7.8 7.2 85 1.1 WNW 6 7 3 4 1023.9 1023.8 0.0
28/05:00am 10.4 9.8 7.6 83 1.3 CALM 0 0 0 0 1023.8 1023.7 0.0
28/04:30am 12.8 11.9 9.1 78 1.9 SE 4 7 2 4 1024.0 1024.0 0.0
28/04:00am 14.3 13.0 10.1 76 2.2 SE 7 9 4 5 1023.9 1023.8 0.0
28/03:30am 14.7 13.0 9.9 73 2.5 SE 9 11 5 6 1024.1 1024.1 0.0
28/03:00am 15.5 13.1 10.1 70 2.8 SE 13 17 7 9 1024.4 1024.4 0.0
28/02:30am 15.8 13.5 10.6 71 2.7 ESE 13 19 7 10 1024.7 1024.7 0.0
28/02:00am 15.8 13.8 11.4 75 2.4 SE 13 19 7 10 1025.2 1025.2 0.0
28/01:30am 15.7 13.6 11.1 74 2.4 SE 13 17 7 9 1025.5 1025.5 0.0
28/01:00am 16.0 13.5 11.0 72 2.7 ESE 15 20 8 11 1025.5 1025.5 0.0
28/12:30am 16.3 13.6 10.2 67 3.2 SE 15 22 8 12 1025.7 1025.7 0.0
28/12:00am 16.8 14.5 10.6 67 3.3 SE 13 20 7 11 1025.5 1025.5 0.0
 
Date/Time
CDT
Temp
°C
App
Temp
°C
Dew
Point
Rel
Hum
%
Delta-T
°C
Wind Press
QNH
hPa
Press
MSL
hPa
Rain
since 9 am
mm
Dir
 
Spd
km/h
Gust
km/h
Spd
kts
Gust
kts
27/11:30pm 16.9 14.5 10.1 64 3.6 SE 13 20 7 11 1025.6 1025.6 0.0
27/11:00pm 17.2 14.0 9.9 62 3.8 SE 17 24 9 13 1025.8 1025.8 0.0
27/10:30pm 17.2 14.7 9.6 61 4.0 SE 13 19 7 10 1025.7 1025.7 0.0
27/10:00pm 16.0 13.3 10.5 70 2.9 SSW 15 20 8 11 1025.5 1025.5 0.0
27/09:30pm 16.8 13.6 11.3 70 3.0 SSW 19 26 10 14 1025.8 1025.8 0.0
27/09:00pm 17.1 13.3 11.2 68 3.2 S 22 28 12 15 1025.8 1025.8 0.0
27/08:30pm 17.0 13.2 11.1 68 3.2 S 22 30 12 16 1025.7 1025.7 0.0
27/08:00pm 17.1 13.2 10.9 67 3.3 S 22 30 12 16 1025.5 1025.5 0.0
27/07:30pm 17.2 12.9 10.8 66 3.4 S 24 33 13 18 1025.3 1025.3 0.0
27/07:00pm 17.8 13.9 10.7 63 3.8 S 22 33 12 18 1025.3 1025.3 0.0
27/06:30pm 18.5 13.7 10.3 59 4.4 S 26 33 14 18 1025.2 1025.2 0.0
27/06:00pm 18.9 14.4 9.9 56 4.8 S 24 35 13 19 1025.2 1025.2 0.0
27/05:30pm 19.0 14.4 9.5 54 5.0 S 24 32 13 17 1025.1 1025.1 0.0
27/05:00pm 18.7 14.5 8.1 50 5.4 S 20 28 11 15 1025.2 1025.2 0.0
27/04:30pm 19.2 15.1 7.9 48 5.8 S 19 26 10 14 1025.5 1025.5 0.0
27/04:00pm 19.5 15.2 6.9 44 6.4 S 19 26 10 14 1025.7 1025.7 0.0
27/03:30pm 20.3 16.4 7.3 43 6.6 SSE 17 24 9 13 1026.0 1026.0 0.0
27/03:00pm 18.8 14.2 6.6 45 6.1 SSE 20 28 11 15 1026.3 1026.3 0.0
27/02:30pm 19.0 15.0 6.5 44 6.2 S 17 26 9 14 1026.7 1026.7 0.0
27/02:00pm 19.3 15.5 7.4 46 6.1 SE 17 28 9 15 1027.3 1027.3 0.0
27/01:30pm 18.4 13.9 6.3 45 5.9 SE 19 28 10 15 1027.6 1027.6 0.0
27/01:00pm 18.4 14.3 6.3 45 6.0 SE 17 28 9 15 1028.1 1028.1 0.0
27/12:30pm 17.8 13.7 6.0 46 5.7 SE 17 24 9 13 1028.5 1028.5 0.0
27/12:00pm 18.2 13.7 6.1 45 5.9 SE 19 28 10 15 1028.8 1028.8 0.0
27/11:30am 17.6 13.8 5.9 46 5.7 SE 15 24 8 13 1029.4 1029.4 0.0
27/11:00am 18.1 14.0 6.3 46 5.8 SE 17 28 9 15 1029.6 1029.6 0.0
27/10:30am 17.4 13.8 6.9 50 5.2 SE 15 20 8 11 1029.7 1029.7 0.0
27/10:00am 16.7 12.7 6.5 51 5.0 ESE 17 20 9 11 1029.7 1029.7 0.0
27/09:30am 16.1 11.8 6.8 54 4.5 ESE 19 24 10 13 1029.5 1029.5 0.0
27/09:00am 15.8 11.5 7.0 56 4.3 ESE 19 26 10 14 1029.2 1029.2 0.0
27/08:30am 15.7 12.2 7.0 56 4.3 ESE 15 22 8 12 1029.1 1029.1 0.0
27/08:00am 15.7 12.5 6.7 55 4.4 ESE 13 17 7 9 1028.9 1028.9 0.0
27/07:30am 15.1 12.0 7.4 60 3.8 ESE 13 19 7 10 1028.8 1028.8 0.0
27/07:00am 15.1 11.7 7.6 61 3.7 ESE 15 22 8 12 1028.4 1028.4 0.0
27/06:30am 15.2 12.2 7.7 61 3.7 SE 13 17 7 9 1028.4 1028.4 0.0
27/06:00am 15.3 11.6 7.8 61 3.7 SE 17 22 9 12 1028.0 1028.0 0.0
27/05:30am 15.6 12.3 6.6 55 4.4 SSE 13 17 7 9 1027.8 1027.8 0.0
27/05:00am 15.6 12.4 6.9 56 4.3 SE 13 20 7 11 1027.5 1027.5 0.0
27/04:30am 15.7 11.3 6.7 55 4.4 SE 19 26 10 14 1027.4 1027.4 0.0
27/04:00am 15.8 11.9 7.0 56 4.3 SSE 17 24 9 13 1027.5 1027.5 0.0
27/03:30am 15.0 12.5 6.6 57 4.1 SSW 9 13 5 7 1027.8 1027.8 0.0
27/03:00am 15.8 13.1 7.3 57 4.2 S 11 24 6 13 1027.8 1027.8 0.0
27/02:30am 15.9 12.7 6.9 55 4.4 SSE 13 22 7 12 1027.9 1027.9 0.0
27/02:00am 15.3 13.0 7.3 59 4.0 SSW 9 19 5 10 1028.1 1028.1 0.0
27/01:30am 14.2 11.8 5.3 55 4.2 SW 7 9 4 5 1028.2 1028.2 0.0
27/01:00am 14.4 10.8 5.2 54 4.3 SW 13 15 7 8 1028.4 1028.4 0.0
27/12:30am 14.7 11.7 5.8 55 4.2 SW 11 13 6 7 1028.5 1028.5 0.0
27/12:00am 14.8 11.1 6.1 56 4.1 SW 15 19 8 10 1028.6 1028.6 0.0
 
Date/Time
CDT
Temp
°C
App
Temp
°C
Dew
Point
Rel
Hum
%
Delta-T
°C
Wind Press
QNH
hPa
Press
MSL
hPa
Rain
since 9 am
mm
Dir
 
Spd
km/h
Gust
km/h
Spd
kts
Gust
kts
26/11:30pm 14.1 11.5 6.0 58 3.8 WSW 9 13 5 7 1028.7 1028.7 0.0
26/11:00pm 14.0 11.0 5.9 58 3.8 SW 11 17 6 9 1028.8 1028.8 0.0
26/10:30pm 14.5 11.1 6.1 57 4.0 SSW 13 19 7 10 1028.7 1028.7 0.0
26/10:00pm 15.0 10.5 6.0 55 4.3 SW 19 24 10 13 1028.7 1028.7 0.0
26/09:30pm 15.3 11.3 6.6 56 4.2 SSW 17 26 9 14 1028.6 1028.6 0.0
26/09:00pm 16.2 11.4 7.4 56 4.4 S 22 28 12 15 1028.2 1028.2 0.0
26/08:30pm 16.3 11.9 8.8 61 3.8 S 22 33 12 18 1027.9 1027.9 0.0
26/08:00pm 16.3 11.1 7.3 55 4.5 S 24 32 13 17 1027.7 1027.7 0.0
26/07:30pm 16.4 10.8 7.3 55 4.5 S 26 35 14 19 1027.5 1027.5 0.0
26/07:00pm 16.9 11.3 7.0 52 4.9 S 26 35 14 19 1027.3 1027.3 0.0
26/06:30pm 17.3 10.7 7.6 53 4.9 S 32 43 17 23 1026.9 1026.9 0.0
26/06:00pm 18.0 11.0 6.2 46 5.8 S 32 44 17 24 1026.7 1026.7 0.0
26/05:30pm 18.0 11.4 5.9 45 5.9 S 30 44 16 24 1026.7 1026.7 0.0
26/05:00pm 19.3 12.7 7.7 47 5.9 S 32 44 17 24 1026.7 1026.7 0.0
26/04:30pm 18.8 12.6 6.0 43 6.3 S 28 39 15 21 1026.7 1026.7 0.0
26/04:00pm 18.6 12.6 5.1 41 6.5 S 26 39 14 21 1026.8 1026.8 0.0
26/03:30pm 18.2 12.4 7.9 51 5.2 S 28 39 15 21 1026.9 1026.9 0.0
26/03:00pm 18.3 12.1 7.7 50 5.4 S 30 41 16 22 1026.8 1026.8 0.0
26/02:30pm 18.4 11.6 7.5 49 5.5 S 33 44 18 24 1026.9 1026.9 0.0
26/02:00pm 18.7 12.1 7.8 49 5.6 S 32 43 17 23 1027.1 1027.1 0.0
26/01:30pm 18.5 13.3 5.4 42 6.3 S 22 33 12 18 1027.3 1027.3 0.0
26/01:00pm 16.8 12.8 9.2 61 3.9 SE 20 32 11 17 1027.8 1027.8 0.0
26/12:30pm 18.7 12.9 6.2 44 6.1 S 26 35 14 19 1027.6 1027.6 0.0
26/12:00pm 18.8 13.2 5.6 42 6.4 SSW 24 37 13 20 1027.6 1027.6 0.0
26/11:30am 18.2 14.6 8.2 52 5.1 SSE 17 30 9 16 1027.8 1027.8 0.0
26/11:00am 17.0 11.4 5.3 46 5.6 SSW 24 39 13 21 1027.7 1027.7 0.0
26/10:30am 16.8 10.9 5.7 48 5.3 SW 26 33 14 18 1027.5 1027.5 0.0
26/10:00am 17.1 10.9 6.0 48 5.4 SSW 28 35 15 19 1027.1 1027.1 0.0
26/09:30am 16.2 10.0 6.3 52 4.8 SW 28 37 15 20 1026.8 1026.8 0.0
26/09:00am 14.9 8.5 5.1 52 4.6 WSW 28 35 15 19 1026.5 1026.5 0.0
26/08:30am 13.1 8.2 4.3 55 4.0 WSW 19 30 10 16 1026.2 1026.2 0.0
26/08:00am 11.6 6.7 4.1 60 3.4 WSW 19 22 10 12 1025.9 1025.9 0.0
26/07:30am 11.4 6.9 4.2 61 3.2 WSW 17 22 9 12 1025.5 1025.5 0.0
26/07:00am 11.2 6.7 4.2 62 3.1 WSW 17 20 9 11 1025.2 1025.2 0.0
26/06:30am 11.2 6.7 4.2 62 3.1 WSW 17 22 9 12 1024.8 1024.8 0.0
26/06:00am 11.0 6.8 4.0 62 3.1 WSW 15 20 8 11 1024.4 1024.4 0.0
26/05:30am 11.0 6.8 4.0 62 3.1 WSW 15 19 8 10 1024.2 1024.2 0.0
26/05:00am 11.2 7.0 4.0 61 3.2 WSW 15 19 8 10 1024.0 1024.0 0.0
26/04:30am 11.6 7.8 4.1 60 3.3 WSW 13 17 7 9 1023.9 1023.8 0.0
26/04:00am 12.0 7.1 4.2 59 3.5 WSW 19 24 10 13 1023.8 1023.7 0.0
26/03:30am 12.3 7.2 4.0 57 3.7 WSW 20 28 11 15 1023.7 1023.6 0.0
26/03:00am 12.4 7.8 3.9 56 3.8 WSW 17 20 9 11 1023.9 1023.8 0.0
26/02:30am 12.8 7.9 4.0 55 4.0 WSW 19 24 10 13 1023.9 1023.8 0.0
26/02:00am 12.6 7.5 4.1 56 3.8 WSW 20 26 11 14 1023.9 1023.8 0.0
26/01:30am 12.8 7.9 4.0 55 4.0 WSW 19 28 10 15 1023.9 1023.8 0.0
26/01:00am 13.0 8.1 4.2 55 4.0 WSW 19 22 10 12 1023.8 1023.7 0.0
26/12:30am 13.5 9.0 4.1 53 4.3 WSW 17 20 9 11 1023.6 1023.5 0.0
26/12:00am 14.0 9.5 4.3 52 4.4 WSW 17 24 9 13 1023.4 1023.3 0.0
 
Date/Time
CDT
Temp
°C
App
Temp
°C
Dew
Point
Rel
Hum
%
Delta-T
°C
Wind Press
QNH
hPa
Press
MSL
hPa
Rain
since 9 am
mm
Dir
 
Spd
km/h
Gust
km/h
Spd
kts
Gust
kts
25/11:30pm 15.0 10.2 5.5 53 4.5 SW 20 28 11 15 1023.3 1023.2 0.0
25/11:00pm 15.3 10.8 6.8 57 4.2 SW 20 30 11 16 1023.3 1023.2 0.0
25/10:30pm 15.3 11.3 8.3 63 3.5 SW 19 28 10 15 1023.1 1023.0 0.0
25/10:00pm 15.6 11.4 9.9 69 3.0 SW 22 28 12 15 1022.9 1022.8 0.0
25/09:30pm 15.3 10.3 10.9 75 2.3 SW 28 39 15 21 1022.5 1022.4 0.0
25/09:08pm 15.0 9.2 11.4 79 1.9 SW 33 43 18 23 1022.2 1022.1 0.0
25/09:00pm 15.1 8.7 11.9 81 1.7 SW 37 54 20 29 1022.2 1022.1 0.0
25/08:33pm 16.0 10.4 12.2 78 2.1 SW 33 48 18 26 1021.4 1021.3 0.0
25/08:30pm 16.1 10.7 12.3 78 2.1 SSW 32 43 17 23 1021.4 1021.3 0.0
25/08:26pm 16.4 10.6 12.6 78 2.1 SSW 35 54 19 29 1021.2 1021.1 0.0
25/08:00pm 17.9 11.1 11.9 68 3.3 SSW 39 50 21 27 1020.2 1020.1 0.0
25/07:34pm 21.1 14.8 9.0 46 6.4 WSW 32 52 17 28 1019.3 1019.2 0.0
25/07:30pm 21.9 15.9 7.0 38 7.6 WSW 28 43 15 23 1019.2 1019.1 0.0
25/07:00pm 22.5 16.6 5.9 34 8.4 WSW 26 37 14 20 1018.6 1018.5 0.0
25/06:30pm 22.8 17.2 5.3 32 8.7 WSW 24 32 13 17 1018.3 1018.2 0.0
25/06:00pm 23.1 17.1 5.1 31 9.0 WSW 26 39 14 21 1018.2 1018.1 0.0
25/05:30pm 23.3 17.5 4.3 29 9.3 WSW 24 37 13 20 1018.1 1018.0 0.0
25/05:00pm 23.6 17.7 4.0 28 9.6 W 24 48 13 26 1018.0 1017.9 0.0
25/04:54pm 24.3 18.8 4.1 27 10.0 WSW 22 48 12 26 1017.9 1017.8 0.0
25/04:30pm 23.4 17.5 3.9 28 9.5 W 24 35 13 19 1018.2 1018.1 0.0
25/04:00pm 23.4 17.8 3.4 27 9.7 SW 22 32 12 17 1018.2 1018.1 0.0
25/03:30pm 23.2 17.5 2.7 26 9.8 WSW 22 32 12 17 1018.6 1018.5 0.0
25/03:00pm 22.3 16.9 2.4 27 9.4 W 20 37 11 20 1018.8 1018.7 0.0
25/02:30pm 22.5 16.8 2.6 27 9.4 W 22 39 12 21 1019.1 1019.0 0.0
25/02:00pm 21.5 16.3 2.7 29 8.9 W 19 26 10 14 1019.6 1019.5 0.0
25/01:30pm 21.0 15.8 3.7 32 8.3 WNW 20 33 11 18 1019.9 1019.8 0.0
25/01:00pm 20.2 15.1 4.3 35 7.7 WSW 20 30 11 16 1020.3 1020.2 0.0
25/12:30pm 20.1 14.6 4.2 35 7.6 W 22 35 12 19 1020.6 1020.5 0.0

Other Formats:

Comma delimited format used in spreadsheet applications
http://www.bom.gov.au/fwo/IDS60801/IDS60801.95664.axf

JavaScript Object Notation format (JSON) in row-major order
http://www.bom.gov.au/fwo/IDS60801/IDS60801.95664.json